createdAt,value
2023-03-19T00:00:46.229Z,99507.75
2023-03-19T00:03:34.315Z,99509.16
2023-03-19T00:06:02.494Z,99507.63
2023-03-19T00:08:29.480Z,99509.22
2023-03-19T00:10:56.736Z,99515.31
2023-03-19T00:13:23.649Z,99514.03
2023-03-19T00:15:50.991Z,99508.69
2023-03-19T00:18:18.256Z,99513.88
2023-03-19T00:20:45.785Z,99510.19
2023-03-19T00:23:12.806Z,99512.63
2023-03-19T00:25:40.353Z,99516.28
2023-03-19T00:28:07.923Z,99520.69
2023-03-19T00:30:35.249Z,99518.44
2023-03-19T00:33:02.867Z,99521.47
2023-03-19T00:35:30.167Z,99521.81
2023-03-19T00:37:57.664Z,99511.97
2023-03-19T00:40:25.214Z,99525.41
2023-03-19T00:42:52.129Z,99520.09
2023-03-19T00:45:19.532Z,99524.97
2023-03-19T00:47:46.535Z,99509.81
2023-03-19T00:50:14.006Z,99521.03
2023-03-19T00:52:41.604Z,99507.53
2023-03-19T00:55:09.547Z,99513.38
2023-03-19T00:57:36.560Z,99509.47
2023-03-19T01:00:04.992Z,99513.38
2023-03-19T01:02:32.505Z,99509.00
2023-03-19T01:04:59.920Z,99505.81
2023-03-19T01:07:26.998Z,99509.09
2023-03-19T01:09:54.512Z,99507.47
2023-03-19T01:12:21.404Z,99507.47
2023-03-19T01:14:48.689Z,99497.59
2023-03-19T01:17:16.115Z,99498.44
2023-03-19T01:19:43.428Z,99494.69
2023-03-19T01:22:10.591Z,99489.78
2023-03-19T01:24:40.997Z,99493.44
2023-03-19T01:27:08.484Z,99496.28
2023-03-19T01:29:36.615Z,99493.44
2023-03-19T01:32:12.053Z,99486.88
2023-03-19T01:34:59.302Z,99487.78
2023-03-19T01:37:26.489Z,99493.63
2023-03-19T01:39:53.948Z,99496.00
2023-03-19T01:42:21.414Z,99511.22
2023-03-19T01:45:46.731Z,99506.31
2023-03-19T01:48:59.984Z,99506.66
2023-03-19T01:51:35.999Z,99507.31
2023-03-19T01:54:43.125Z,99511.31
2023-03-19T01:57:36.550Z,99506.38
2023-03-19T02:00:22.860Z,99510.41
2023-03-19T02:02:58.284Z,99499.56
2023-03-19T02:05:47.631Z,99501.53
2023-03-19T02:08:18.924Z,99502.56
2023-03-19T02:10:48.108Z,99496.63
2023-03-19T02:13:16.178Z,99491.06
2023-03-19T02:15:43.557Z,99494.25
2023-03-19T02:18:11.082Z,99489.66
2023-03-19T02:21:03.247Z,99488.91
2023-03-19T02:23:55.860Z,99505.16
2023-03-19T02:26:42.686Z,99506.19
2023-03-19T02:29:10.332Z,99496.97
2023-03-19T02:31:37.394Z,99510.03
2023-03-19T02:34:27.675Z,99507.22
2023-03-19T02:37:05.469Z,99511.19
2023-03-19T02:40:12.776Z,99518.50
2023-03-19T02:42:39.877Z,99521.13
2023-03-19T02:45:08.732Z,99519.66
2023-03-19T02:47:36.049Z,99513.94
2023-03-19T02:50:04.131Z,99513.09
2023-03-19T02:52:31.175Z,99523.13
2023-03-19T02:54:58.366Z,99524.16
2023-03-19T02:57:25.901Z,99520.84
2023-03-19T02:59:53.218Z,99531.41
2023-03-19T03:02:20.547Z,99520.84
2023-03-19T03:04:48.841Z,99520.72
2023-03-19T03:07:15.866Z,99525.53
2023-03-19T03:09:43.133Z,99523.63
2023-03-19T03:12:10.555Z,99520.91
2023-03-19T03:14:38.028Z,99522.38
2023-03-19T03:17:05.750Z,99518.38
2023-03-19T03:19:33.214Z,99534.72
2023-03-19T03:22:01.023Z,99523.31
2023-03-19T03:24:28.614Z,99529.97
2023-03-19T03:26:57.863Z,99543.88
2023-03-19T03:29:25.897Z,99543.88
2023-03-19T03:31:53.096Z,99541.41
2023-03-19T03:34:20.916Z,99540.25
2023-03-19T03:36:47.952Z,99549.16
2023-03-19T03:39:15.300Z,99557.28
2023-03-19T03:41:42.534Z,99549.50
2023-03-19T03:44:10.235Z,99548.84
2023-03-19T03:46:40.069Z,99559.59
2023-03-19T03:49:07.491Z,99551.53
2023-03-19T03:51:34.621Z,99558.81
2023-03-19T03:54:02.626Z,99550.88
2023-03-19T03:56:31.363Z,99548.88
2023-03-19T03:58:58.724Z,99540.97
2023-03-19T04:01:25.832Z,99551.22
2023-03-19T04:03:56.400Z,99554.88
2023-03-19T04:06:25.636Z,99555.22
2023-03-19T04:09:09.060Z,99542.53
2023-03-19T04:11:38.844Z,99538.63
2023-03-19T04:14:08.008Z,99541.44
2023-03-19T04:16:36.599Z,99544.75
2023-03-19T04:19:04.912Z,99548.38
2023-03-19T04:21:31.981Z,99550.72
2023-03-19T04:23:59.269Z,99547.22
2023-03-19T04:26:27.019Z,99544.59
2023-03-19T04:28:54.609Z,99549.41
2023-03-19T04:31:22.095Z,99547.75
2023-03-19T04:33:49.592Z,99553.03
2023-03-19T04:36:17.857Z,99546.13
2023-03-19T04:38:45.113Z,99548.91
2023-03-19T04:41:18.205Z,99544.81
2023-03-19T04:43:59.017Z,99545.84
2023-03-19T04:46:28.728Z,99544.19
2023-03-19T04:48:56.043Z,99541.59
2023-03-19T04:51:24.036Z,99535.31
2023-03-19T04:53:52.056Z,99547.03
2023-03-19T04:56:19.449Z,99546.25
2023-03-19T04:58:46.850Z,99542.28
2023-03-19T05:01:14.464Z,99539.31
2023-03-19T05:03:59.093Z,99545.28
2023-03-19T05:06:27.211Z,99536.03
2023-03-19T05:08:55.249Z,99536.69
2023-03-19T05:11:23.174Z,99541.28
2023-03-19T05:14:16.849Z,99545.88
2023-03-19T05:16:57.019Z,99548.03
2023-03-19T05:19:26.296Z,99545.84
2023-03-19T05:21:53.593Z,99544.53
2023-03-19T05:24:25.600Z,99543.38
2023-03-19T05:26:54.208Z,99544.03
2023-03-19T05:29:42.548Z,99534.94
2023-03-19T05:32:47.127Z,99546.16
2023-03-19T05:35:30.855Z,99542.50
2023-03-19T05:37:59.520Z,99548.47
2023-03-19T05:40:27.212Z,99550.56
2023-03-19T05:42:55.268Z,99547.41
2023-03-19T05:45:25.694Z,99540.16
2023-03-19T05:47:56.696Z,99531.25
2023-03-19T05:50:25.744Z,99527.88
2023-03-19T05:53:10.781Z,99542.03
2023-03-19T05:55:41.147Z,99536.72
2023-03-19T05:58:11.236Z,99536.06
2023-03-19T06:00:39.147Z,99531.88
2023-03-19T06:03:06.359Z,99538.28
2023-03-19T06:05:42.818Z,99538.25
2023-03-19T06:08:21.945Z,99544.47
2023-03-19T06:11:01.095Z,99555.63
2023-03-19T06:13:28.809Z,99557.56
2023-03-19T06:16:01.265Z,99555.50
2023-03-19T06:18:34.616Z,99565.69
2023-03-19T06:21:07.088Z,99558.97
2023-03-19T06:23:34.116Z,99554.91
2023-03-19T06:26:02.801Z,99560.56
2023-03-19T06:28:36.547Z,99556.47
2023-03-19T06:31:05.261Z,99557.88
2023-03-19T06:33:51.331Z,99563.66
2023-03-19T06:36:19.246Z,99555.97
2023-03-19T06:38:48.530Z,99558.78
2023-03-19T06:41:16.617Z,99559.97
2023-03-19T06:43:44.385Z,99557.28
2023-03-19T06:46:12.130Z,99558.28
2023-03-19T06:48:39.229Z,99559.22
2023-03-19T06:51:07.020Z,99560.88
2023-03-19T06:53:34.879Z,99550.81
2023-03-19T06:56:02.457Z,99561.34
2023-03-19T06:58:29.428Z,99565.53
2023-03-19T07:00:58.576Z,99561.03
2023-03-19T07:03:25.692Z,99550.38
2023-03-19T07:05:53.530Z,99561.78
2023-03-19T07:08:20.702Z,99552.69
2023-03-19T07:10:48.439Z,99556.47
2023-03-19T07:13:15.409Z,99554.69
2023-03-19T07:15:42.919Z,99550.25
2023-03-19T07:18:10.143Z,99547.63
2023-03-19T07:20:37.614Z,99550.53
2023-03-19T07:23:04.784Z,99553.84
2023-03-19T07:25:32.312Z,99548.50
2023-03-19T07:27:59.645Z,99533.91
2023-03-19T07:30:27.153Z,99542.28
2023-03-19T07:32:55.422Z,99536.28
2023-03-19T07:35:23.033Z,99536.84
2023-03-19T07:37:50.748Z,99542.09
2023-03-19T07:40:18.613Z,99544.47
2023-03-19T07:42:45.638Z,99530.41
2023-03-19T07:45:13.638Z,99534.88
2023-03-19T07:47:40.976Z,99528.59
2023-03-19T07:50:09.983Z,99522.19
2023-03-19T07:52:37.108Z,99516.59
2023-03-19T07:55:05.352Z,99518.78
2023-03-19T07:57:32.940Z,99502.78
2023-03-19T08:00:00.256Z,99509.16
2023-03-19T08:02:27.376Z,99511.22
2023-03-19T08:04:55.714Z,99501.69
2023-03-19T08:07:22.946Z,99495.22
2023-03-19T08:09:50.340Z,99494.78
2023-03-19T08:12:17.314Z,99500.88
2023-03-19T08:14:44.910Z,99505.50
2023-03-19T08:17:12.585Z,99505.28
2023-03-19T08:19:40.173Z,99497.59
2023-03-19T08:22:07.302Z,99496.38
2023-03-19T08:24:35.272Z,99498.59
2023-03-19T08:27:02.329Z,99499.38
2023-03-19T08:29:29.915Z,99489.94
2023-03-19T08:31:58.591Z,99484.34
2023-03-19T08:34:26.932Z,99482.56
2023-03-19T08:36:53.831Z,99483.09
2023-03-19T08:39:21.130Z,99477.22
2023-03-19T08:41:48.235Z,99478.81
2023-03-19T08:44:15.817Z,99478.97
2023-03-19T08:46:43.028Z,99478.72
2023-03-19T08:49:10.947Z,99479.31
2023-03-19T08:51:38.364Z,99474.22
2023-03-19T08:54:06.114Z,99481.66
2023-03-19T08:56:33.065Z,99476.75
2023-03-19T08:59:00.450Z,99470.97
2023-03-19T09:01:27.700Z,99474.28
2023-03-19T09:03:55.106Z,99470.72
2023-03-19T09:06:22.222Z,99472.63
2023-03-19T09:08:49.730Z,99464.03
2023-03-19T09:11:18.039Z,99459.16
2023-03-19T09:13:45.550Z,99463.47
2023-03-19T09:16:12.636Z,99470.47
2023-03-19T09:18:40.287Z,99467.81
2023-03-19T09:21:07.490Z,99458.69
2023-03-19T09:23:35.144Z,99456.59
2023-03-19T09:26:02.030Z,99460.13
2023-03-19T09:28:29.284Z,99451.31
2023-03-19T09:30:56.363Z,99449.13
2023-03-19T09:33:23.718Z,99454.00
2023-03-19T09:35:53.340Z,99452.13
2023-03-19T09:38:21.898Z,99449.16
2023-03-19T09:41:12.767Z,99437.53
2023-03-19T09:44:00.267Z,99436.81
2023-03-19T09:47:19.153Z,99433.63
2023-03-19T09:49:50.910Z,99433.72
2023-03-19T09:52:50.732Z,99426.53
2023-03-19T09:55:24.285Z,99421.34
2023-03-19T09:57:56.109Z,99416.53
2023-03-19T10:00:29.822Z,99429.00
2023-03-19T10:03:29.812Z,99423.75
2023-03-19T10:06:25.410Z,99429.00
2023-03-19T10:09:32.583Z,99420.63
2023-03-19T10:12:17.447Z,99422.81
2023-03-19T10:15:17.248Z,99415.75
2023-03-19T10:18:21.102Z,99409.00
2023-03-19T10:21:09.577Z,99410.88
2023-03-19T10:24:04.211Z,99405.47
2023-03-19T10:26:37.482Z,99396.81
2023-03-19T10:29:20.653Z,99400.59
2023-03-19T10:31:59.526Z,99401.69
2023-03-19T10:34:37.762Z,99401.16
2023-03-19T10:37:12.470Z,99397.88
2023-03-19T10:39:43.766Z,99381.09
2023-03-19T10:42:58.053Z,99377.84
2023-03-19T10:45:37.901Z,99370.69
2023-03-19T10:48:13.319Z,99371.81
2023-03-19T10:50:55.195Z,99372.31
2023-03-19T10:53:39.206Z,99368.16
2023-03-19T10:56:23.267Z,99359.09
2023-03-19T10:59:25.336Z,99353.66
2023-03-19T11:01:59.527Z,99353.16
2023-03-19T11:04:28.729Z,99356.94
2023-03-19T11:07:03.337Z,99354.13
2023-03-19T11:09:36.868Z,99356.06
2023-03-19T11:12:37.275Z,99352.47
2023-03-19T11:15:22.133Z,99348.16
2023-03-19T11:17:58.394Z,99344.28
2023-03-19T11:20:36.339Z,99341.69
2023-03-19T11:23:18.029Z,99335.78
2023-03-19T11:25:53.482Z,99333.78
2023-03-19T11:28:26.376Z,99330.25
2023-03-19T11:31:00.753Z,99329.69
2023-03-19T11:33:42.933Z,99328.56
2023-03-19T11:36:37.921Z,99325.19
2023-03-19T11:40:10.621Z,99316.56
2023-03-19T11:42:51.424Z,99303.44
2023-03-19T11:45:42.080Z,99294.28
2023-03-19T11:48:19.435Z,99292.56
2023-03-19T11:50:58.528Z,99305.41
2023-03-19T11:53:56.762Z,99295.69
2023-03-19T11:56:55.644Z,99283.41
2023-03-19T12:00:10.697Z,99282.19
2023-03-19T12:03:32.133Z,99276.16
2023-03-19T12:06:38.134Z,99284.34
2023-03-19T12:09:35.343Z,99277.00
2023-03-19T12:12:46.819Z,99264.72
2023-03-19T12:15:54.960Z,99256.69
2023-03-19T12:19:11.922Z,99260.53
2023-03-19T12:22:03.430Z,99254.59
2023-03-19T12:25:01.492Z,99260.03
2023-03-19T12:27:55.585Z,99254.91
2023-03-19T12:30:42.193Z,99242.81
2023-03-19T12:33:43.569Z,99237.19
2023-03-19T12:36:23.487Z,99235.16
2023-03-19T12:39:02.343Z,99225.72
2023-03-19T12:41:33.816Z,99225.13
2023-03-19T12:44:13.743Z,99229.66
2023-03-19T12:47:09.665Z,99221.81
2023-03-19T12:49:47.530Z,99215.69
2023-03-19T12:52:38.003Z,99222.16
2023-03-19T12:55:23.076Z,99216.22
2023-03-19T12:58:20.709Z,99210.34
2023-03-19T13:01:03.628Z,99220.66
2023-03-19T13:03:44.543Z,99216.69
2023-03-19T13:06:28.688Z,99207.50
2023-03-19T13:09:10.216Z,99217.19
2023-03-19T13:11:52.692Z,99213.38
2023-03-19T13:14:34.932Z,99207.94
2023-03-19T13:17:17.174Z,99206.19
2023-03-19T13:19:51.045Z,99199.44
2023-03-19T13:22:34.579Z,99199.72
2023-03-19T13:25:03.714Z,99202.25
2023-03-19T13:27:36.304Z,99191.38
2023-03-19T13:30:10.083Z,99192.19
2023-03-19T13:32:51.407Z,99197.41
2023-03-19T13:35:44.562Z,99206.72
2023-03-19T13:38:24.686Z,99189.56
2023-03-19T13:40:56.538Z,99185.56
2023-03-19T13:43:29.966Z,99184.34
2023-03-19T13:46:12.554Z,99184.72
2023-03-19T13:48:46.922Z,99184.53
2023-03-19T13:51:20.172Z,99188.34
2023-03-19T13:54:16.374Z,99182.13
2023-03-19T13:57:00.918Z,99188.47
2023-03-19T13:59:39.864Z,99176.47
2023-03-19T14:02:21.909Z,99175.50
2023-03-19T14:05:17.191Z,99176.22
2023-03-19T14:07:53.160Z,99174.00
2023-03-19T14:10:32.040Z,99179.44
2023-03-19T14:13:18.504Z,99177.31
2023-03-19T14:15:51.946Z,99165.88
2023-03-19T14:18:24.686Z,99177.06
2023-03-19T14:21:07.093Z,99172.03
2023-03-19T14:23:44.265Z,99171.59
2023-03-19T14:26:17.925Z,99174.31
2023-03-19T14:28:44.935Z,99176.28
2023-03-19T14:31:31.168Z,99177.69
2023-03-19T14:34:16.555Z,99176.97
2023-03-19T14:37:03.935Z,99174.84
2023-03-19T14:39:42.319Z,99169.78
2023-03-19T14:42:47.105Z,99175.38
2023-03-19T14:45:32.014Z,99173.88
2023-03-19T14:48:42.021Z,99179.25
2023-03-19T14:51:22.444Z,99177.06
2023-03-19T14:54:28.370Z,99177.63
2023-03-19T14:56:57.477Z,99169.59
2023-03-19T14:59:24.797Z,99169.59
2023-03-19T15:01:54.011Z,99166.41
2023-03-19T15:04:26.089Z,99167.31
2023-03-19T15:06:59.822Z,99178.47
2023-03-19T15:09:32.195Z,99173.41
2023-03-19T15:12:48.131Z,99183.84
2023-03-19T15:15:24.395Z,99178.22
2023-03-19T15:18:10.826Z,99173.91
2023-03-19T15:20:45.473Z,99173.41
2023-03-19T15:23:26.745Z,99163.78
2023-03-19T15:26:01.478Z,99172.09
2023-03-19T15:28:38.158Z,99178.19
2023-03-19T15:31:29.136Z,99178.88
2023-03-19T15:33:54.252Z,99183.91
2023-03-19T15:36:33.185Z,99184.50
2023-03-19T15:39:11.787Z,99187.31
2023-03-19T15:41:45.968Z,99181.91
2023-03-19T15:44:28.881Z,99185.47
2023-03-19T15:46:58.025Z,99195.50
2023-03-19T15:49:56.408Z,99193.34
2023-03-19T15:52:26.338Z,99190.16
2023-03-19T15:54:56.239Z,99192.66
2023-03-19T15:57:25.092Z,99190.78
2023-03-19T15:59:56.075Z,99187.34
2023-03-19T16:02:31.993Z,99195.78
2023-03-19T16:05:21.038Z,99191.03
2023-03-19T16:07:59.473Z,99197.03
2023-03-19T16:10:42.204Z,99196.56
2023-03-19T16:13:37.736Z,99202.81
2023-03-19T16:16:08.570Z,99202.06
2023-03-19T16:18:52.168Z,99205.09
2023-03-19T16:21:40.180Z,99205.13
2023-03-19T16:24:30.796Z,99205.69
2023-03-19T16:26:58.985Z,99218.41
2023-03-19T16:29:30.271Z,99221.69
2023-03-19T16:32:03.180Z,99229.25
2023-03-19T16:34:47.480Z,99226.03
2023-03-19T16:37:55.045Z,99227.09
2023-03-19T16:40:23.600Z,99222.22
2023-03-19T16:42:52.761Z,99222.50
2023-03-19T16:45:28.431Z,99215.50
2023-03-19T16:47:58.368Z,99216.28
2023-03-19T16:50:41.282Z,99225.47
2023-03-19T16:53:26.691Z,99227.59
2023-03-19T16:55:57.194Z,99234.34
2023-03-19T16:58:37.586Z,99239.72
2023-03-19T17:01:14.585Z,99243.72
2023-03-19T17:03:41.962Z,99250.91
2023-03-19T17:06:14.623Z,99254.69
2023-03-19T17:08:42.753Z,99256.81
2023-03-19T17:11:23.308Z,99257.31
2023-03-19T17:13:50.774Z,99262.97
2023-03-19T17:16:18.108Z,99258.59
2023-03-19T17:18:47.749Z,99257.50
2023-03-19T17:21:27.076Z,99260.19
2023-03-19T17:23:55.399Z,99263.91
2023-03-19T17:26:28.629Z,99254.97
2023-03-19T17:28:56.612Z,99258.94
2023-03-19T17:31:33.047Z,99263.72
2023-03-19T17:34:13.742Z,99258.00
2023-03-19T17:36:44.436Z,99265.22
2023-03-19T17:39:12.066Z,99267.88
2023-03-19T17:41:39.708Z,99268.06
2023-03-19T17:44:06.971Z,99265.56
2023-03-19T17:46:40.908Z,99264.41
2023-03-19T17:49:31.779Z,99269.75
2023-03-19T17:51:59.859Z,99265.38
2023-03-19T17:54:27.806Z,99266.41
2023-03-19T17:56:55.697Z,99265.78
2023-03-19T17:59:23.225Z,99272.19
2023-03-19T18:01:50.868Z,99266.19
2023-03-19T18:04:21.035Z,99262.31
2023-03-19T18:06:57.605Z,99263.34
2023-03-19T18:09:32.781Z,99276.16
2023-03-19T18:12:00.232Z,99272.88
2023-03-19T18:14:27.296Z,99282.97
2023-03-19T18:16:54.867Z,99283.44
2023-03-19T18:19:36.085Z,99277.44
2023-03-19T18:22:14.909Z,99276.53
2023-03-19T18:24:42.288Z,99280.44
2023-03-19T18:27:09.450Z,99285.19
2023-03-19T18:29:36.480Z,99286.16
2023-03-19T18:32:26.065Z,99283.94
2023-03-19T18:34:53.552Z,99287.59
2023-03-19T18:37:20.931Z,99292.88
2023-03-19T18:39:48.953Z,99300.88
2023-03-19T18:42:16.633Z,99293.81
2023-03-19T18:44:43.805Z,99296.41
2023-03-19T18:47:15.784Z,99296.34
2023-03-19T18:49:43.711Z,99300.00
2023-03-19T18:52:17.236Z,99302.03
2023-03-19T18:54:46.868Z,99301.94
2023-03-19T18:57:16.425Z,99301.28
2023-03-19T18:59:43.851Z,99300.38
2023-03-19T19:02:34.747Z,99297.03
2023-03-19T19:05:02.155Z,99299.91
2023-03-19T19:07:29.688Z,99302.41
2023-03-19T19:09:56.722Z,99303.34
2023-03-19T19:12:27.079Z,99304.28
2023-03-19T19:14:54.406Z,99299.66
2023-03-19T19:17:29.421Z,99303.03
2023-03-19T19:19:56.483Z,99312.06
2023-03-19T19:22:23.867Z,99308.22
2023-03-19T19:24:51.090Z,99309.19
2023-03-19T19:27:26.488Z,99309.06
2023-03-19T19:29:53.703Z,99308.16
2023-03-19T19:32:28.561Z,99310.72
2023-03-19T19:34:56.549Z,99313.31
2023-03-19T19:37:24.278Z,99323.69
2023-03-19T19:39:51.798Z,99326.75
2023-03-19T19:42:22.603Z,99322.34
2023-03-19T19:45:00.319Z,99324.91
2023-03-19T19:47:27.879Z,99318.38
2023-03-19T19:49:54.815Z,99329.81
2023-03-19T19:52:22.596Z,99323.50
2023-03-19T19:54:51.612Z,99322.81
2023-03-19T19:57:24.627Z,99327.50
2023-03-19T19:59:53.985Z,99334.25
2023-03-19T20:02:29.313Z,99335.16
2023-03-19T20:04:58.401Z,99336.13
2023-03-19T20:07:27.138Z,99337.03
2023-03-19T20:09:54.081Z,99342.84
2023-03-19T20:12:29.313Z,99338.44
2023-03-19T20:14:57.419Z,99341.78
2023-03-19T20:17:25.178Z,99330.34
2023-03-19T20:19:52.529Z,99328.94
2023-03-19T20:22:19.849Z,99321.84
2023-03-19T20:24:49.546Z,99336.72
2023-03-19T20:27:25.456Z,99328.56
2023-03-19T20:29:53.745Z,99334.81
2023-03-19T20:32:34.119Z,99335.31
2023-03-19T20:35:01.963Z,99336.22
2023-03-19T20:37:30.089Z,99346.31
2023-03-19T20:39:57.087Z,99337.59
2023-03-19T20:42:26.463Z,99340.13
2023-03-19T20:44:58.498Z,99336.25
2023-03-19T20:47:26.273Z,99332.84
2023-03-19T20:49:53.899Z,99333.91
2023-03-19T20:52:21.440Z,99334.56
2023-03-19T20:54:48.863Z,99333.41
2023-03-19T20:57:24.231Z,99326.06
2023-03-19T20:59:51.234Z,99323.00
2023-03-19T21:02:27.538Z,99322.66
2023-03-19T21:04:54.720Z,99329.47
2023-03-19T21:07:34.469Z,99331.22
2023-03-19T21:10:16.619Z,99347.78
2023-03-19T21:12:43.854Z,99346.22
2023-03-19T21:15:14.529Z,99347.50
2023-03-19T21:17:42.238Z,99345.50
2023-03-19T21:20:24.120Z,99345.94
2023-03-19T21:23:06.763Z,99356.03
2023-03-19T21:25:35.691Z,99354.00
2023-03-19T21:28:09.980Z,99342.97
2023-03-19T21:30:43.547Z,99353.47
2023-03-19T21:33:24.375Z,99353.91
2023-03-19T21:35:53.926Z,99348.22
2023-03-19T21:38:22.570Z,99354.00
2023-03-19T21:40:55.016Z,99348.28
2023-03-19T21:43:33.501Z,99351.56
2023-03-19T21:46:13.818Z,99346.66
2023-03-19T21:48:44.937Z,99342.81
2023-03-19T21:51:16.570Z,99344.31
2023-03-19T21:53:45.571Z,99350.06
2023-03-19T21:56:35.505Z,99345.16
2023-03-19T21:59:12.874Z,99347.69
2023-03-19T22:01:40.577Z,99346.50
2023-03-19T22:04:08.079Z,99345.28
2023-03-19T22:06:36.462Z,99345.75
2023-03-19T22:09:04.378Z,99349.84
2023-03-19T22:11:35.925Z,99336.34
2023-03-19T22:14:26.913Z,99340.28
2023-03-19T22:16:56.538Z,99337.25
2023-03-19T22:19:24.575Z,99338.09
2023-03-19T22:21:51.922Z,99341.81
2023-03-19T22:24:19.132Z,99343.88
2023-03-19T22:26:49.471Z,99332.81
2023-03-19T22:29:23.505Z,99335.72
2023-03-19T22:31:52.596Z,99340.66
2023-03-19T22:34:23.696Z,99332.47
2023-03-19T22:36:52.559Z,99333.72
2023-03-19T22:39:19.985Z,99328.81
2023-03-19T22:42:00.352Z,99338.06
2023-03-19T22:44:31.199Z,99335.84
2023-03-19T22:47:01.044Z,99332.19
2023-03-19T22:49:29.820Z,99328.09
2023-03-19T22:51:58.250Z,99337.56
2023-03-19T22:54:26.406Z,99335.53
2023-03-19T22:56:53.352Z,99337.59
2023-03-19T22:59:20.530Z,99338.03
2023-03-19T23:01:48.529Z,99337.66
2023-03-19T23:04:30.571Z,99346.72
2023-03-19T23:07:00.368Z,99337.66
2023-03-19T23:09:37.803Z,99340.19
2023-03-19T23:12:07.326Z,99342.22
2023-03-19T23:14:34.910Z,99338.13
2023-03-19T23:17:14.288Z,99339.38
2023-03-19T23:19:41.561Z,99330.78
2023-03-19T23:22:16.270Z,99331.19
2023-03-19T23:24:44.611Z,99337.38
2023-03-19T23:27:26.035Z,99332.53
2023-03-19T23:29:54.442Z,99337.06
2023-03-19T23:32:21.933Z,99341.97
2023-03-19T23:34:59.522Z,99345.88
2023-03-19T23:37:28.822Z,99342.84
2023-03-19T23:39:56.431Z,99337.91
2023-03-19T23:42:31.466Z,99333.59
2023-03-19T23:45:03.665Z,99327.69
2023-03-19T23:47:31.043Z,99333.41
2023-03-19T23:49:58.995Z,99330.75
2023-03-19T23:52:26.146Z,99340.41
2023-03-19T23:54:53.420Z,99342.03
2023-03-19T23:57:23.177Z,99333.44
2023-03-19T23:59:52.295Z,99342.44
